• Join FlightAware (Why Join?)
  • Login
  • US Flag 
08:07AM EDT


 

Airport Tracker/Info


-or-


 

Live Flight TrackerFlight Track Log ✈ N229CN ✈ 16-May-2013 ✈ KLAR - KBED

Flight Track Log - Related Links

Times and Time Zones

All times are in EDT time to prevent confusion due to time zone crossing. See the N229CN flight status page for this flight to view local times or setup timezone preferences in your user account.

Time Position Orientation Groundspeed Altitude Reporting Facility
EDT Latitude Longitude Course Direction KTS MPH feet Rate Location/Type
05:55PM 41.4698 -104.8257 76° East  Level Estimated
05:56PM 41.4955 -104.6837 76° East  Level Estimated
05:57PM 41.5210 -104.5416 76° East  Level Estimated
05:58PM 41.5463 -104.3995 77° East  Level Estimated
05:58PM 41.3750 -105.7061 27° Northeast 225 259 13,000  Level Denver Center
05:59PM 41.5715 -104.2572 77° East  Level Estimated
05:59PM 41.4500 -105.6589 25° Northeast 287 330 14,000  Level Denver Center
06:00PM 41.5965 -104.1148 77° East  Level Estimated
06:00PM 41.4933 -105.5442 63° Northeast 315 362 16,700  Level Denver Center
06:01PM 41.6213 -103.9723 77° East  Level Estimated
06:01PM 41.5114 -105.4508 75° East 324 373 18,300  Level Denver Center
06:02PM 41.6459 -103.8297 77° East  Level Estimated
06:02PM 41.5436 -105.2986 74° East 334 384 21,100  Level Denver Center
06:03PM 41.6703 -103.6869 77° East  Level Estimated
06:03PM 41.5664 -105.1828 75° East 337 388 23,100  Level Denver Center
06:05PM 41.5936 -105.0478 75° East 337 388 25,100 1,860 Climbing Denver Center
06:06PM 41.6178 -104.9261 75° East 353 406 27,000 1,740 Climbing Denver Center
06:07PM 41.6444 -104.7897 75° East 343 395 28,800 1,560 Climbing Denver Center
06:08PM 41.6675 -104.6708 75° East 343 395 30,600 1,740 Climbing Denver Center
06:09PM 41.6989 -104.5122 75° East 346 398 32,900 1,920 Climbing Denver Center
06:10PM 41.7094 -104.3936 83° East 338 389 34,700 1,740 Climbing Denver Center
06:11PM 41.7219 -104.2572 83° East 332 382 36,600 1,320 Climbing Denver Center
06:12PM 41.7239 -104.1394 89° East 333 383 37,800 1,140 Climbing Denver Center
06:13PM 41.7272 -103.9889 88° East 320 368 39,200 1,140 Climbing Denver Center
06:14PM 41.7172 -103.8517 96° East 332 382 40,200 720 Climbing Denver Center
06:15PM 41.7058 -103.7333 97° East 336 387 40,700 480 Climbing Denver Center
06:16PM 41.6892 -103.5933 99° East 341 392 41,300 480 Climbing Denver Center
06:17PM 41.6961 -103.4675 86° East 356 410 41,700 720 Climbing Denver Center
06:18PM 41.7253 -103.3219 75° East 363 418 42,900 720 Climbing Denver Center
06:19PM 41.7467 -103.1997 77° East 357 411 43,200 420 Climbing Denver Center
06:20PM 41.7714 -103.0542 77° East 359 413 43,800 480 Climbing Denver Center
06:21PM 41.7919 -102.9272 78° East 364 419 44,200 360 Climbing Denver Center
06:23PM 41.8131 -102.7997 77° East 367 422 44,600 360 Climbing Denver Center
06:24PM 41.8378 -102.6503 77° East 369 425 45,000 120 Climbing Denver Center
06:26PM 41.8833 -102.3658 78° East 378 435 45,000  Level Denver Center
06:27PM 41.9081 -102.2200 77° East 388 447 45,000  Level Denver Center
06:28PM 41.9297 -102.0803 78° East 398 458 45,000  Level Denver Center
06:29PM 41.9553 -101.9153 78° East 402 463 45,000  Level Denver Center
06:30PM 41.9781 -101.7708 78° East 410 472 45,000  Level Denver Center
06:31PM 42.0036 -101.6025 78° East 412 474 45,000  Level Denver Center
06:32PM 42.0256 -101.4561 79° East 415 478 45,000  Level Denver Center
06:33PM 42.0508 -101.2842 79° East 419 482 45,000  Level Denver Center
06:34PM 42.0722 -101.1356 79° East 423 487 45,000  Level Denver Center
06:35PM 42.0981 -100.9614 79° East 424 488 45,000  Level Denver Center
06:36PM 42.1200 -100.8117 79° East 427 491 45,000  Level Denver Center
06:37PM 42.1450 -100.6358 79° East 427 491 45,000  Level Denver Center
06:38PM 42.1664 -100.4842 79° East 429 494 45,000  Level Denver Center
06:39PM 42.1878 -100.3325 79° East 431 496 45,000  Level Denver Center
06:40PM 42.2125 -100.1544 79° East 431 496 45,000  Level Denver Center
06:41PM 42.2339 -100.0036 79° East 429 494 45,000  Level Denver Center
06:42PM 42.2575 -99.8286 80° East 425 489 45,000  Level Denver Center
06:43PM 42.2772 -99.6750 80° East 427 491 45,000  Level Denver Center
06:44PM 42.2981 -99.5206 80° East 419 482 45,000  Level Denver Center
06:45PM 42.3183 -99.3647 80° East 420 483 45,000  Level Denver Center
06:46PM 42.3383 -99.2078 80° East 423 487 45,000  Level Denver Center
06:47PM 42.3633 -99.0186 80° East 424 488 45,000  Level Denver Center
06:48PM 42.3836 -98.8578 80° East 430 495 45,000  Level Denver Center
06:49PM 42.4039 -98.6969 80° East 432 497 45,000  Level Denver Center
06:51PM 42.4278 -98.5028 80° East 435 501 45,000  Level Minneapolis Center
06:52PM 42.4486 -98.3436 80° East 433 498 45,000  Level Minneapolis Center
06:53PM 42.4681 -98.1828 81° East 432 497 45,000  Level Minneapolis Center
06:54PM 42.4906 -97.9864 81° East 436 502 45,000  Level Minneapolis Center
06:55PM 42.5094 -97.8269 81° East 437 503 45,000  Level Minneapolis Center
06:56PM 42.5283 -97.6689 81° East 428 493 45,000  Level Minneapolis Center
06:57PM 42.5503 -97.4758 81° East 430 495 45,000  Level Minneapolis Center
06:58PM 42.5683 -97.3156 81° East 431 496 45,000  Level Minneapolis Center
06:59PM 42.5894 -97.1239 81° East 429 494 45,000  Level Minneapolis Center
07:00PM 42.6106 -96.9350 81° East 425 489 45,000  Level Minneapolis Center
07:01PM 42.6269 -96.7747 82° East 427 491 45,000  Level Minneapolis Center
07:02PM 42.6447 -96.6125 81° East 432 497 45,000  Level Minneapolis Center
07:04PM 42.6617 -96.4511 82° East 430 495 45,000  Level Minneapolis Center
07:05PM 42.6778 -96.2897 82° East 429 494 45,000  Level Minneapolis Center
07:06PM 42.6950 -96.1275 82° East 431 496 45,000  Level Minneapolis Center
07:07PM 42.7142 -95.9319 82° East 433 498 45,000  Level Minneapolis Center
07:08PM 42.7286 -95.7856 82° East 430 495 45,000  Level Minneapolis Center
07:09PM 42.7408 -95.6569 83° East 430 495 45,000  Level Minneapolis Center
07:10PM 42.7625 -95.4275 83° East 439 505 45,000  Level Minneapolis Center
07:11PM 42.7778 -95.2661 83° East 436 502 45,000  Level Minneapolis Center
07:12PM 42.7925 -95.1106 83° East 422 486 45,000  Level Minneapolis Center
07:13PM 42.8069 -94.9519 83° East 423 487 45,000  Level Minneapolis Center
07:14PM 42.8219 -94.7925 83° East 426 490 45,000  Level Minneapolis Center
07:15PM 42.8408 -94.5672 83° East 434 499 45,000  Level Minneapolis Center
07:16PM 42.8517 -94.4361 84° East 439 505 45,000  Level Minneapolis Center
07:17PM 42.8686 -94.2408 83° East 430 495 45,000  Level Minneapolis Center
07:18PM 42.8811 -94.0839 84° East 431 496 45,000  Level Minneapolis Center
07:19PM 42.8944 -93.9236 83° East 431 496 45,000  Level Minneapolis Center
07:20PM 42.9100 -93.7314 84° East 430 495 45,000  Level Minneapolis Center
07:21PM 42.9233 -93.5703 83° East 431 496 45,000  Level Minneapolis Center
07:22PM 42.9358 -93.4081 84° East 434 499 45,000  Level Minneapolis Center
07:23PM 42.9483 -93.2453 84° East 435 501 45,000  Level Minneapolis Center
07:24PM 42.9600 -93.0811 84° East 436 502 45,000  Level Minneapolis Center
07:25PM 42.9753 -92.8861 84° East 435 501 45,000  Level Minneapolis Center
07:26PM 42.9867 -92.7236 84° East 435 501 45,000  Level Minneapolis Center
07:28PM 42.9978 -92.5603 85° East 434 499 45,000  Level Minneapolis Center
07:29PM 43.0106 -92.3664 85° East 431 496 45,000  Level Minneapolis Center
07:30PM 43.0239 -92.1706 85° East 434 499 45,000  Level Minneapolis Center
07:31PM 43.0353 -92.0050 85° East 438 504 45,000  Level Minneapolis Center
07:32PM 43.0467 -91.8389 85° East 439 505 45,000  Level Minneapolis Center
07:33PM 43.0572 -91.6739 85° East 436 502 45,000  Level Minneapolis Center
07:34PM 43.0656 -91.5403 85° East 437 503 45,000  Level Minneapolis Center
07:35PM 43.0769 -91.3394 85° East 440 506 45,000  Level Minneapolis Center
07:36PM 43.0881 -91.1408 86° East 438 504 45,000  Level Minneapolis Center
07:37PM 43.0967 -90.9756 86° East 438 504 45,000  Level Minneapolis Center
07:38PM 43.1064 -90.8125 85° East 439 505 45,000  Level Chicago Center
07:39PM 43.1144 -90.6492 86° East 435 501 45,000  Level Chicago Center
07:40PM 43.1233 -90.4864 86° East 433 498 45,000  Level Chicago Center
07:41PM 43.1311 -90.3211 86° East 437 503 45,000  Level Chicago Center
07:42PM 43.1397 -90.1369 86° East 432 497 45,000  Level Chicago Center
07:43PM 43.1472 -89.9708 86° East 436 502 45,000  Level Chicago Center
07:44PM 43.1572 -89.7761 86° East 439 505 45,000  Level Chicago Center
07:45PM 43.1639 -89.6075 87° East 442 509 45,000  Level Chicago Center
07:46PM 43.1703 -89.4378 87° East 445 512 45,000  Level Chicago Center
07:47PM 43.1783 -89.2714 86° East 440 506 45,000  Level Chicago Center
07:48PM 43.1836 -89.1042 87° East 440 506 45,000  Level Chicago Center
07:49PM 43.1917 -88.9106 87° East 437 503 45,000  Level Chicago Center
07:50PM 43.1981 -88.7469 87° East 433 498 45,000  Level Chicago Center
07:51PM 43.2031 -88.5819 88° East 437 503 45,000  Level Chicago Center
07:53PM 43.2081 -88.4175 88° East 437 503 45,000  Level Chicago Center
07:54PM 43.2144 -88.2275 87° East 434 499 45,000  Level Chicago Center
07:55PM 43.2208 -88.0633 87° East 434 499 45,000  Level Chicago Center
07:56PM 43.2253 -87.8967 88° East 439 505 45,000  Level Chicago Center
07:57PM 43.2292 -87.7294 88° East 440 506 45,000  Level Chicago Center
07:58PM 43.2344 -87.5631 87° East 439 505 45,000  Level Chicago Center
07:59PM 43.2389 -87.3692 88° East 438 504 45,000  Level Chicago Center
08:00PM 43.2433 -87.2117 88° East 438 504 45,000  Level Chicago Center
08:01PM 43.2475 -87.0458 88° East 436 502 45,000  Level Chicago Center
08:02PM 43.2500 -86.8803 89° East 435 501 45,000  Level Chicago Center
08:03PM 43.2531 -86.7128 89° East 438 504 45,000  Level Chicago Center
08:04PM 43.2569 -86.5139 88° East 436 502 45,000  Level Chicago Center
08:05PM 43.2597 -86.3483 89° East 435 501 45,000  Level Chicago Center
08:06PM 43.2628 -86.1806 89° East 436 502 45,000  Level Chicago Center
08:07PM 43.2650 -86.0106 89° East 439 505 45,000  Level Chicago Center
08:08PM 43.2669 -85.8400 89° East 440 506 45,000  Level Chicago Center
08:09PM 43.2678 -85.6703 90° East 441 507 45,000  Level Chicago Center
08:10PM 43.2692 -85.5014 89° East 442 509 45,000  Level Chicago Center
08:11PM 43.2692 -85.3339 90° East 434 499 45,000  Level Cleveland Center
08:12PM 43.2697 -85.1656 90° East 434 499 45,000  Level Cleveland Center
08:13PM 43.2700 -85.0003 90° East 429 494 45,000  Level Cleveland Center
08:14PM 43.2719 -84.8319 89° East 429 494 45,000  Level Cleveland Center
08:15PM 43.2717 -84.6636 90° East 429 494 45,000  Level Cleveland Center
08:16PM 43.2714 -84.4956 90° East 435 501 45,000  Level Cleveland Center
08:17PM 43.2711 -84.3158 90° East 435 501 45,000  Level Cleveland Center
08:18PM 43.2681 -84.1472 91° East 440 506 45,000  Level Cleveland Center
08:19PM 43.2711 -83.9792 89° East 440 506 45,000  Level Cleveland Center
08:20PM 43.2672 -83.8250 92° East 440 506 45,000  Level Cleveland Center
08:21PM 43.2675 -83.6597 90° East 440 506 45,000  Level Cleveland Center
08:22PM 43.2656 -83.4856 91° East 445 512 45,000  Level Cleveland Center
08:23PM 43.2636 -83.3117 91° East 445 512 45,000  Level Cleveland Center
08:24PM 43.2614 -83.1403 91° East 445 512 45,000  Level Cleveland Center
08:25PM 43.2586 -82.9719 91° East 445 512 45,000  Level Cleveland Center
08:26PM 43.2558 -82.7981 91° East 445 512 45,000  Level Cleveland Center
08:27PM 43.2500 -82.6167 92° East 450 518 45,000  Level Toronto Center
08:28PM 43.2333 -82.4500 98° East 450 518 45,000  Level Toronto Center
08:29PM 43.2333 -82.2667 90° East 450 518 45,000  Level Toronto Center
08:30PM 43.2333 -82.1000 90° East 450 518 45,000  Level Toronto Center
08:31PM 43.2167 -81.9167 97° East 440 506 45,000  Level Toronto Center
08:32PM 43.2333 -81.7667 81° East 440 506 45,000  Level Toronto Center
08:33PM 43.2167 -81.6000 98° East 450 518 45,000  Level Toronto Center
08:34PM 43.2167 -81.4167 90° East 450 518 45,000  Level Toronto Center
08:35PM 43.2000 -81.2333 97° East 450 518 45,000  Level Toronto Center
08:36PM 43.2000 -81.0667 90° East 450 518 45,000  Level Toronto Center
08:37PM 43.1833 -80.9167 99° East 450 518 45,000  Level Toronto Center
08:38PM 43.2000 -80.7333 83° East 440 506 45,000  Level Toronto Center
08:39PM 43.1833 -80.5667 98° East 440 506 45,000  Level Toronto Center
08:40PM 43.1833 -80.4167 90° East 440 506 45,000  Level Toronto Center
08:41PM 43.1833 -80.2333 90° East 440 506 45,000  Level Toronto Center
08:42PM 43.1667 -80.0667 98° East 450 518 45,000  Level Toronto Center
08:43PM 43.1667 -79.8833 90° East 450 518 45,000  Level Toronto Center
08:44PM 43.1500 -79.7167 98° East 450 518 45,000  Level Toronto Center
08:45PM 43.1500 -79.5667 90° East 450 518 45,000  Level Toronto Center
08:46PM 43.1333 -79.3833 97° East 450 518 45,000  Level Toronto Center
08:47PM 43.1333 -79.2167 90° East 450 518 45,000  Level Toronto Center
08:48PM 43.1167 -79.0333 97° East 450 518 45,000  Level Toronto Center
08:49PM 43.1167 -78.8833 90° East 450 518 45,000  Level Toronto Center
08:50PM 43.1000 -78.7000 97° East 450 518 45,000  Level Toronto Center
08:51PM 43.1000 -78.5333 90° East 450 518 45,000  Level Toronto Center
08:52PM 43.0667 -78.3500 104° East 450 518 45,000  Level Toronto Center
08:53PM 43.0500 -78.2000 99° East 450 518 45,000  Level Toronto Center
08:54PM 43.0167 -78.0167 104° East 450 518 45,000  Level Toronto Center
08:55PM 43.0000 -77.8500 98° East 450 518 45,000  Level Toronto Center
08:56PM 42.9833 -77.7000 99° East 460 529 45,000  Level Toronto Center
08:57PM 42.9500 -77.5167 104° East 460 529 45,000  Level Toronto Center
08:58PM 42.9167 -77.3500 105° East 450 518 45,000  Level Toronto Center
08:59PM 42.8833 -77.1833 105° East 450 518 45,000  Level Toronto Center
09:00PM 42.8833 -77.0167 90° East 450 518 45,000  Level Toronto Center
09:01PM 42.8833 -76.8333 90° East 450 518 45,000  Level Toronto Center
09:01PM 42.8839 -76.7989 89° East 444 511 45,000  Level Boston Center
09:02PM 42.8797 -76.6314 92° East 444 511 45,000  Level Boston Center
09:03PM 42.8731 -76.4664 93° East 444 511 45,000  Level Boston Center
09:04PM 42.8664 -76.2989 93° East 444 511 45,000  Level Boston Center
09:05PM 42.8617 -76.1314 92° East 444 511 45,000 -600 Level Boston Center
09:06PM 42.8544 -75.9664 93° East 444 511 43,800 -1,380 Descending Boston Center
09:07PM 42.8467 -75.8019 94° East 444 511 42,300 -1,500 Descending Boston Center
09:08PM 42.8392 -75.6314 93° East 444 511 40,900 -1,500 Descending Boston Center
09:09PM 42.8314 -75.4583 93° East 452 520 39,400 -1,500 Descending Boston Center
09:10PM 42.8233 -75.2822 94° East 457 526 37,900 -1,800 Descending Boston Center
09:11PM 42.8153 -75.1036 93° East 463 533 35,900 -2,040 Descending Boston Center
09:12PM 42.8064 -74.9419 94° East 477 549 33,900 -2,040 Descending Boston Center
09:13PM 42.7978 -74.7633 94° East 477 549 31,900 -2,040 Descending Boston Center
09:14PM 42.7886 -74.5819 94° East 477 549 29,900 -1,500 Descending Boston Center
09:15PM 42.7794 -74.4033 94° East 477 549 29,000 -540 Descending Boston Center
09:16PM 42.7700 -74.2192 94° East 482 555 28,900  Descending Boston Center
09:17PM 42.7581 -74.0378 95° East 482 555 29,000  Climbing Boston Center
09:18PM 42.7500 -73.8567 93° East 482 555 29,000  Level Boston Center
09:19PM 42.7356 -73.6781 96° East 482 555 29,000  Level Boston Center
09:20PM 42.7144 -73.4942 99° East 482 555 29,000  Level Boston Center
09:21PM 42.6931 -73.3100 99° East 487 560 29,000  Level Boston Center
09:22PM 42.6733 -73.1264 98° East 487 560 29,000 -900 Level Boston Center
09:23PM 42.6517 -72.9200 98° East 487 560 27,300 -1,860 Descending Boston Center
09:24PM 42.6314 -72.7533 99° East 480 552 25,300 -2,100 Descending Boston Center
09:25PM 42.6150 -72.5981 98° East 448 516 23,200 -2,040 Descending Boston Center
09:26PM 42.5922 -72.4317 100° East 440 506 21,300 -1,920 Descending Boston Center
09:27PM 42.5711 -72.2653 100° East 440 506 19,400 -3,060 Descending Boston Center
09:28PM 42.5522 -72.1358 101° East 390 449 15,200 -3,660 Descending Boston Center
09:29PM 42.5414 -72.0089 97° East 346 398 12,100 -2,820 Descending Boston Center
09:30PM 42.5303 -71.8850 97° East 325 374 9,600 -2,700 Descending Boston Center
09:31PM 42.5192 -71.7669 97° East 320 368 6,700 -1,920 Descending Boston Center
09:32PM 42.5081 -71.6544 98° East 310 357 5,800 -1,320 Descending Boston Center
09:33PM 42.5000 -71.6000 101° East 296 341 4,800 -1,860 Descending KA90
09:34PM 42.5000 -71.5000 90° East 277 319 3,100 -1,200 Descending KA90
09:35PM 42.5000 -71.4000 90° East 222 255 2,500 -600 Descending KA90
09:36PM 42.5000 -71.3333 90° East 193 222 1,900 -420 Descending KA90
09:37PM 42.5167 -71.2667 71° East 186 214 1,700 -120 Descending KA90
09:38PM 42.5000 -71.2000 109° East 158 182 1,700 -240 Level KA90
09:39PM 42.4667 -71.2000 180° South 124 143 1,200 -600 Descending KA90
09:40PM 42.4667 -71.2333 270° West 101 116 600 -360 Descending KA90
09:41PM 42.4611 -71.2833 261° West 80 92 400 2,100 Descending Boston Center
09:42PM 42.4572 -71.3117 259° West 80 92 6,000 2,760 Climbing Boston Center
09:43PM 42.4514 -71.3400 254° West 80 92 6,000  Level Boston Center
09:45PM 42.4667 -71.2833 66° East  Level FlightAware Approximate
09:52PM 42.4699 -71.2890 66° East  Level Estimated
09:53PM 42.4667 -71.2833 66° East  Level FlightAware Approximate